createdAt,value
2019-05-30T00:00:12.529Z,32.53
2019-05-30T00:02:35.986Z,30.10
2019-05-30T00:05:18.070Z,32.58
2019-05-30T00:07:51.586Z,34.87
2019-05-30T00:10:24.116Z,34.65
2019-05-30T00:12:58.570Z,35.70
2019-05-30T00:15:31.042Z,34.75
2019-05-30T00:18:05.092Z,36.55
2019-05-30T00:20:39.539Z,39.88
2019-05-30T00:23:13.347Z,44.83
2019-05-30T00:25:45.636Z,40.10
2019-05-30T00:28:18.937Z,44.05
2019-05-30T00:33:23.153Z,42.60
2019-05-30T00:38:28.401Z,45.12
2019-05-30T00:41:01.992Z,45.20
2019-05-30T00:43:35.335Z,47.70
2019-05-30T00:48:39.379Z,47.27
2019-05-30T00:51:12.860Z,47.33
2019-05-30T00:53:45.499Z,49.88
2019-05-30T00:56:18.036Z,48.10
2019-05-30T00:58:51.755Z,48.48
2019-05-30T01:01:25.063Z,46.18
2019-05-30T01:04:00.745Z,46.63
2019-05-30T01:06:33.381Z,51.48
2019-05-30T01:09:07.577Z,46.95
2019-05-30T01:11:40.793Z,49.58
2019-05-30T01:14:35.053Z,51.55
2019-05-30T01:17:07.730Z,46.98
2019-05-30T01:19:40.578Z,52.83
2019-05-30T01:22:13.329Z,49.65
2019-05-30T01:25:04.434Z,48.45
2019-05-30T01:27:32.596Z,46.83
2019-05-30T01:32:38.135Z,46.80
2019-05-30T01:35:11.299Z,44.05
2019-05-30T01:37:43.853Z,43.25
2019-05-30T01:40:17.411Z,48.23
2019-05-30T01:42:49.911Z,48.23
2019-05-30T01:45:22.557Z,47.85
2019-05-30T01:47:56.556Z,46.37
2019-05-30T01:50:30.225Z,47.03
2019-05-30T01:53:08.715Z,45.65
2019-05-30T01:55:41.576Z,47.53
2019-05-30T01:58:14.916Z,41.50
2019-05-30T02:00:48.174Z,43.52
2019-05-30T02:05:52.123Z,36.33
2019-05-30T02:08:24.698Z,27.27
2019-05-30T02:10:59.186Z,27.87
2019-05-30T02:13:31.903Z,27.80
2019-05-30T02:16:05.707Z,24.18
2019-05-30T02:18:38.324Z,24.95
2019-05-30T02:21:11.329Z,24.15
2019-05-30T02:26:15.630Z,23.20
2019-05-30T02:28:48.535Z,25.00
2019-05-30T02:31:37.823Z,22.10
2019-05-30T02:33:56.984Z,23.62
2019-05-30T02:36:30.489Z,23.32
2019-05-30T02:39:03.087Z,19.80
2019-05-30T02:44:10.264Z,21.00
2019-05-30T02:46:44.011Z,22.05
2019-05-30T02:49:16.424Z,22.42
2019-05-30T02:51:50.063Z,21.35
2019-05-30T02:54:23.165Z,21.95
2019-05-30T02:59:27.447Z,20.43
2019-05-30T03:04:33.129Z,19.50
2019-05-30T03:09:39.224Z,15.10
2019-05-30T03:12:13.429Z,14.38
2019-05-30T03:14:46.645Z,13.22
2019-05-30T03:17:20.220Z,12.37
2019-05-30T03:19:56.512Z,13.38
2019-05-30T03:22:29.532Z,12.60
2019-05-30T03:25:05.034Z,12.90
2019-05-30T03:27:37.284Z,15.60
2019-05-30T03:30:22.080Z,13.28
2019-05-30T03:33:07.573Z,15.00
2019-05-30T03:35:28.743Z,16.65
2019-05-30T03:37:56.465Z,17.00
2019-05-30T03:40:30.330Z,17.48
2019-05-30T03:43:06.035Z,17.42
2019-05-30T03:45:39.085Z,18.07
2019-05-30T03:48:16.003Z,17.90
2019-05-30T03:50:50.534Z,19.30
2019-05-30T03:53:25.699Z,17.02
2019-05-30T03:56:01.158Z,16.20
2019-05-30T03:58:42.284Z,14.00
2019-05-30T04:01:18.508Z,10.60
2019-05-30T04:03:54.425Z,10.23
2019-05-30T04:06:34.645Z,10.25
2019-05-30T04:09:09.897Z,11.53
2019-05-30T04:11:45.370Z,10.28
2019-05-30T04:14:23.987Z,10.75
2019-05-30T04:16:56.576Z,11.63
2019-05-30T04:19:30.444Z,14.15
2019-05-30T04:22:03.659Z,14.00
2019-05-30T04:24:36.534Z,15.30
2019-05-30T04:27:09.886Z,14.33
2019-05-30T04:29:43.174Z,15.15
2019-05-30T04:32:16.507Z,16.82
2019-05-30T04:34:55.983Z,13.95
2019-05-30T04:37:28.558Z,14.95
2019-05-30T04:42:33.450Z,12.20
2019-05-30T04:45:09.504Z,13.28
2019-05-30T04:47:41.754Z,13.85
2019-05-30T04:50:16.385Z,14.55
2019-05-30T04:52:49.128Z,15.18
2019-05-30T04:55:23.123Z,16.07
2019-05-30T04:57:55.626Z,16.48
2019-05-30T05:00:28.590Z,16.32
2019-05-30T05:03:01.451Z,16.35
2019-05-30T05:05:35.732Z,16.07
2019-05-30T05:08:08.720Z,20.17
2019-05-30T05:10:41.728Z,19.75
2019-05-30T05:13:16.167Z,19.70
2019-05-30T05:15:49.095Z,25.27
2019-05-30T05:18:23.426Z,22.80
2019-05-30T05:20:56.412Z,44.83
2019-05-30T05:23:29.610Z,84.60
2019-05-30T05:26:03.282Z,64.47
2019-05-30T05:28:35.927Z,33.98
2019-05-30T05:33:55.465Z,48.85
2019-05-30T05:36:15.389Z,35.58
2019-05-30T05:38:47.995Z,83.10
2019-05-30T05:41:22.188Z,101.18
2019-05-30T05:43:55.182Z,101.67
2019-05-30T05:46:28.759Z,112.05
2019-05-30T05:49:01.773Z,53.33
2019-05-30T05:51:35.479Z,39.98
2019-05-30T05:54:08.285Z,99.07
2019-05-30T05:56:47.749Z,71.90
2019-05-30T05:59:20.987Z,26.73
2019-05-30T06:01:54.330Z,62.55
2019-05-30T06:04:27.357Z,20.43
2019-05-30T06:07:00.562Z,22.35
2019-05-30T06:12:04.807Z,19.90
2019-05-30T06:14:37.350Z,30.15
2019-05-30T06:17:10.241Z,23.20
2019-05-30T06:19:46.326Z,19.60
2019-05-30T06:22:17.416Z,21.73
2019-05-30T06:24:49.863Z,22.27
2019-05-30T06:27:23.897Z,20.45
2019-05-30T06:29:56.825Z,20.65
2019-05-30T06:35:01.679Z,18.62
2019-05-30T06:37:37.262Z,29.20
2019-05-30T06:40:10.319Z,21.52
2019-05-30T06:42:43.285Z,27.45
2019-05-30T06:45:16.723Z,19.10
2019-05-30T06:47:49.771Z,31.23
2019-05-30T06:50:23.214Z,25.08
2019-05-30T06:52:56.289Z,19.75
2019-05-30T06:55:29.510Z,36.53
2019-05-30T06:58:02.746Z,20.30
2019-05-30T07:03:07.018Z,20.02
2019-05-30T07:05:39.981Z,31.93
2019-05-30T07:08:13.417Z,33.67
2019-05-30T07:13:17.018Z,21.10
2019-05-30T07:15:57.072Z,22.35
2019-05-30T07:18:36.785Z,24.98
2019-05-30T07:21:09.054Z,33.85
2019-05-30T07:26:13.663Z,20.17
2019-05-30T07:28:47.042Z,21.02
2019-05-30T07:31:25.962Z,18.85
2019-05-30T07:33:58.402Z,31.02
2019-05-30T07:36:32.263Z,19.73
2019-05-30T07:39:06.724Z,31.27
2019-05-30T07:41:39.441Z,31.95
2019-05-30T07:44:12.679Z,21.60
2019-05-30T07:49:16.921Z,19.77
2019-05-30T07:54:20.827Z,21.55
2019-05-30T07:56:53.547Z,29.70
2019-05-30T07:59:26.707Z,21.35
2019-05-30T08:01:59.229Z,24.18
2019-05-30T08:04:32.492Z,29.87
2019-05-30T08:07:06.243Z,33.18
2019-05-30T08:09:39.285Z,34.88
2019-05-30T08:12:12.200Z,25.68
2019-05-30T08:14:46.336Z,30.75
2019-05-30T08:17:19.462Z,31.30
2019-05-30T08:19:52.555Z,38.65
2019-05-30T08:22:25.556Z,32.95
2019-05-30T08:24:58.577Z,34.33
2019-05-30T08:27:32.700Z,38.23
2019-05-30T08:30:07.329Z,33.00
2019-05-30T08:32:40.014Z,35.60
2019-05-30T08:35:12.826Z,32.00
2019-05-30T08:37:45.503Z,33.78
2019-05-30T08:40:19.885Z,29.20
2019-05-30T08:42:52.653Z,30.12
2019-05-30T08:45:29.551Z,33.05
2019-05-30T08:48:00.459Z,35.30
2019-05-30T08:50:41.301Z,30.77
2019-05-30T08:53:11.665Z,32.15
2019-05-30T08:55:44.612Z,31.60
2019-05-30T09:00:50.500Z,30.90
2019-05-30T09:03:24.199Z,35.05
2019-05-30T09:06:03.726Z,33.85
2019-05-30T09:08:31.505Z,31.10
2019-05-30T09:11:06.552Z,28.40
2019-05-30T09:13:40.328Z,30.92
2019-05-30T09:16:13.199Z,30.10
2019-05-30T09:18:47.298Z,28.35
2019-05-30T09:21:20.635Z,28.62
2019-05-30T09:23:56.885Z,29.02
2019-05-30T09:26:27.431Z,28.57
2019-05-30T09:31:31.489Z,35.13
2019-05-30T09:34:04.738Z,32.48
2019-05-30T09:36:39.428Z,33.10
2019-05-30T09:39:12.626Z,32.15
2019-05-30T09:41:45.719Z,33.83
2019-05-30T09:44:18.181Z,35.43
2019-05-30T09:46:51.432Z,32.13
2019-05-30T09:49:23.880Z,39.03
2019-05-30T09:51:58.093Z,35.85
2019-05-30T09:54:30.701Z,35.08
2019-05-30T09:57:03.908Z,36.75
2019-05-30T09:59:37.301Z,35.52
2019-05-30T10:02:10.509Z,34.67
2019-05-30T10:07:17.566Z,32.42
2019-05-30T10:09:50.943Z,30.57
2019-05-30T10:12:23.835Z,31.62
2019-05-30T10:17:30.528Z,32.45
2019-05-30T10:20:03.839Z,32.73
2019-05-30T10:22:37.038Z,33.60
2019-05-30T10:25:10.755Z,30.60
2019-05-30T10:27:46.259Z,31.75
2019-05-30T10:30:21.157Z,29.32
2019-05-30T10:32:55.760Z,29.27
2019-05-30T10:35:29.999Z,31.80
2019-05-30T10:38:03.991Z,32.20
2019-05-30T10:40:36.648Z,30.85
2019-05-30T10:43:09.510Z,32.80
2019-05-30T10:45:42.114Z,33.70
2019-05-30T10:50:46.959Z,36.70
2019-05-30T10:53:20.597Z,37.58
2019-05-30T10:58:26.618Z,40.98
2019-05-30T11:01:00.332Z,42.78
2019-05-30T11:03:33.417Z,43.65
2019-05-30T11:06:14.209Z,41.53
2019-05-30T11:08:49.131Z,44.35
2019-05-30T11:11:21.977Z,43.85
2019-05-30T11:16:25.974Z,41.05
2019-05-30T11:18:58.938Z,44.93
2019-05-30T11:26:36.480Z,40.85
2019-05-30T11:31:40.353Z,42.58
2019-05-30T11:34:13.789Z,45.55
2019-05-30T11:36:46.217Z,43.70
2019-05-30T11:39:18.960Z,45.15
2019-05-30T11:41:53.205Z,45.10
2019-05-30T11:44:25.972Z,44.18
2019-05-30T11:46:59.759Z,40.12
2019-05-30T11:49:33.018Z,40.98
2019-05-30T11:54:37.334Z,35.23
2019-05-30T11:57:10.739Z,35.20
2019-05-30T11:59:43.457Z,33.33
2019-05-30T12:02:16.077Z,34.03
2019-05-30T12:04:50.702Z,33.75
2019-05-30T12:07:35.948Z,31.35
2019-05-30T12:09:58.987Z,31.15
2019-05-30T12:12:31.620Z,30.77
2019-05-30T12:15:04.588Z,30.62
2019-05-30T12:20:11.211Z,31.55
2019-05-30T12:22:43.751Z,30.00
2019-05-30T12:27:48.290Z,32.48
2019-05-30T12:30:21.726Z,33.75
2019-05-30T12:32:54.298Z,33.67
2019-05-30T12:35:27.298Z,35.55
2019-05-30T12:38:03.277Z,39.78
2019-05-30T12:40:34.079Z,42.53
2019-05-30T12:45:38.400Z,51.00
2019-05-30T12:48:29.816Z,54.18
2019-05-30T12:51:03.527Z,53.73
2019-05-30T12:53:37.735Z,59.88
2019-05-30T12:56:10.396Z,64.12
2019-05-30T12:58:42.917Z,66.28
2019-05-30T13:01:15.849Z,61.13
2019-05-30T13:03:48.243Z,61.75
2019-05-30T13:06:21.410Z,57.88
2019-05-30T13:08:55.023Z,55.23
2019-05-30T13:11:28.004Z,50.48
2019-05-30T13:14:00.764Z,50.55
2019-05-30T13:19:06.271Z,46.53
2019-05-30T13:21:39.144Z,43.50
2019-05-30T13:24:11.697Z,42.58
2019-05-30T13:26:44.560Z,42.23
2019-05-30T13:31:52.202Z,37.50
2019-05-30T13:34:24.716Z,39.30
2019-05-30T13:39:29.193Z,37.50
2019-05-30T13:42:02.027Z,39.42
2019-05-30T13:44:34.314Z,36.58
2019-05-30T13:47:08.735Z,35.33
2019-05-30T13:49:41.610Z,32.98
2019-05-30T13:54:46.013Z,30.92
2019-05-30T13:57:18.743Z,34.08
2019-05-30T13:59:51.439Z,31.68
2019-05-30T14:02:24.646Z,30.60
2019-05-30T14:07:30.315Z,29.05
2019-05-30T14:12:37.737Z,23.80
2019-05-30T14:15:13.757Z,23.75
2019-05-30T14:17:49.005Z,24.02
2019-05-30T14:20:21.986Z,23.73
2019-05-30T14:22:54.553Z,24.63
2019-05-30T14:25:27.221Z,24.87
2019-05-30T14:28:01.478Z,22.85
2019-05-30T14:30:34.439Z,20.95
2019-05-30T14:33:08.132Z,22.45
2019-05-30T14:35:40.964Z,22.87
2019-05-30T14:38:14.362Z,29.70
2019-05-30T14:40:47.019Z,25.02
2019-05-30T14:45:52.296Z,19.45
2019-05-30T14:48:25.668Z,20.35
2019-05-30T14:50:58.389Z,18.02
2019-05-30T14:56:03.307Z,15.72
2019-05-30T14:58:36.393Z,13.08
2019-05-30T15:01:10.991Z,11.33
2019-05-30T15:03:44.607Z,10.80
2019-05-30T15:06:18.106Z,10.05
2019-05-30T15:08:50.958Z,10.50
2019-05-30T15:11:23.537Z,10.10
2019-05-30T15:13:56.151Z,10.08
2019-05-30T15:16:28.540Z,10.72
2019-05-30T15:19:01.418Z,11.78
2019-05-30T15:21:34.031Z,9.88
2019-05-30T15:24:07.735Z,10.55
2019-05-30T15:26:40.700Z,9.53
2019-05-30T15:29:16.672Z,9.45
2019-05-30T15:31:49.626Z,9.80
2019-05-30T15:34:22.864Z,9.33
2019-05-30T15:36:56.073Z,9.95
2019-05-30T15:42:21.757Z,8.90
2019-05-30T15:44:54.423Z,9.18
2019-05-30T15:47:27.211Z,9.55
2019-05-30T15:50:03.088Z,9.05
2019-05-30T15:52:36.725Z,8.43
2019-05-30T15:57:43.783Z,8.13
2019-05-30T16:00:18.055Z,7.65
2019-05-30T16:02:50.514Z,8.78
2019-05-30T16:05:24.251Z,8.03
2019-05-30T16:07:56.871Z,7.42
2019-05-30T16:13:01.304Z,7.42
2019-05-30T16:18:05.638Z,7.08
2019-05-30T16:20:38.378Z,8.28
2019-05-30T16:23:10.817Z,7.00
2019-05-30T16:25:44.754Z,7.50
2019-05-30T16:28:17.870Z,7.83
2019-05-30T16:30:50.359Z,8.15
2019-05-30T16:33:23.322Z,5.62
2019-05-30T16:35:56.413Z,7.97
2019-05-30T16:38:29.139Z,8.40
2019-05-30T16:41:02.092Z,8.98
2019-05-30T16:43:34.800Z,8.40
2019-05-30T16:46:07.884Z,6.87
2019-05-30T16:48:42.048Z,8.20
2019-05-30T16:51:14.982Z,8.90
2019-05-30T16:53:48.653Z,7.75
2019-05-30T16:56:21.546Z,7.90
2019-05-30T16:58:54.178Z,7.87
2019-05-30T17:01:26.851Z,7.60
2019-05-30T17:06:31.178Z,8.70
2019-05-30T17:09:04.080Z,8.45
2019-05-30T17:11:36.535Z,8.05
2019-05-30T17:14:09.350Z,7.78
2019-05-30T17:16:42.051Z,7.35
2019-05-30T17:19:16.294Z,7.37
2019-05-30T17:21:49.115Z,8.00
2019-05-30T17:24:22.932Z,7.90
2019-05-30T17:26:55.718Z,8.68
2019-05-30T17:32:00.096Z,8.20
2019-05-30T17:34:32.963Z,8.50
2019-05-30T17:37:05.574Z,7.97
2019-05-30T17:39:38.280Z,8.35
2019-05-30T17:42:10.965Z,8.70
2019-05-30T17:47:15.544Z,8.15
2019-05-30T17:49:48.990Z,7.95
2019-05-30T17:52:21.748Z,8.33
2019-05-30T17:54:55.376Z,8.43
2019-05-30T17:57:28.150Z,7.50
2019-05-30T18:00:01.166Z,7.83
2019-05-30T18:02:34.089Z,8.50
2019-05-30T18:05:08.479Z,9.23
2019-05-30T18:07:41.148Z,7.87
2019-05-30T18:10:15.650Z,8.90
2019-05-30T18:12:48.292Z,8.40
2019-05-30T18:15:25.027Z,7.25
2019-05-30T18:17:56.008Z,8.35
2019-05-30T18:20:29.397Z,7.58
2019-05-30T18:23:01.852Z,8.35
2019-05-30T18:25:34.698Z,8.20
2019-05-30T18:28:07.393Z,9.65
2019-05-30T18:30:42.591Z,12.37
2019-05-30T18:33:15.582Z,17.67
2019-05-30T18:38:19.357Z,17.20
2019-05-30T18:40:52.290Z,16.97
2019-05-30T18:43:24.835Z,15.98
2019-05-30T18:48:29.570Z,14.68
2019-05-30T18:51:02.617Z,13.88
2019-05-30T18:53:36.737Z,12.37
2019-05-30T18:56:09.568Z,12.88
2019-05-30T18:58:41.865Z,12.25
2019-05-30T19:01:14.637Z,12.98
2019-05-30T19:03:47.181Z,12.68
2019-05-30T19:06:19.976Z,11.03
2019-05-30T19:08:52.562Z,10.82
2019-05-30T19:11:29.591Z,10.30
2019-05-30T19:13:59.432Z,10.20
2019-05-30T19:16:32.913Z,11.18
2019-05-30T19:19:05.428Z,10.72
2019-05-30T19:21:59.090Z,10.28
2019-05-30T19:24:32.134Z,11.33
2019-05-30T19:27:04.976Z,10.50
2019-05-30T19:29:37.876Z,12.07
2019-05-30T19:32:10.335Z,12.37
2019-05-30T19:34:43.453Z,11.65
2019-05-30T19:39:59.787Z,11.22
2019-05-30T19:42:33.437Z,13.00
2019-05-30T19:45:07.991Z,11.00
2019-05-30T19:47:41.041Z,11.65
2019-05-30T19:50:15.331Z,5.75
2019-05-30T19:52:48.866Z,4.60
2019-05-30T19:55:22.046Z,5.05
2019-05-30T20:00:26.433Z,9.43
2019-05-30T20:02:58.887Z,4.75
2019-05-30T20:05:32.477Z,3.42
2019-05-30T20:08:04.962Z,5.20
2019-05-30T20:10:37.448Z,2.50
2019-05-30T20:13:10.476Z,3.40
2019-05-30T20:15:43.017Z,1.50
2019-05-30T20:18:15.581Z,2.12
2019-05-30T20:23:20.827Z,1.80
2019-05-30T20:25:53.614Z,1.27
2019-05-30T20:30:58.360Z,1.20
2019-05-30T20:33:30.797Z,1.32
2019-05-30T20:36:04.709Z,1.10
2019-05-30T20:38:38.589Z,1.40
2019-05-30T20:41:11.562Z,1.60
2019-05-30T20:43:47.071Z,0.95
2019-05-30T20:46:23.477Z,1.60
2019-05-30T20:48:54.819Z,1.85
2019-05-30T20:51:27.295Z,1.50
2019-05-30T20:54:00.018Z,1.80
2019-05-30T20:56:32.278Z,1.72
2019-05-30T20:59:05.318Z,1.72
2019-05-30T21:01:37.757Z,2.12
2019-05-30T21:04:10.518Z,1.82
2019-05-30T21:06:44.120Z,1.67
2019-05-30T21:09:28.337Z,1.60
2019-05-30T21:11:52.167Z,1.75
2019-05-30T21:14:27.582Z,1.98
2019-05-30T21:17:00.231Z,2.00
2019-05-30T21:19:33.159Z,2.35
2019-05-30T21:22:05.538Z,1.98
2019-05-30T21:24:38.624Z,2.08
2019-05-30T21:27:12.042Z,1.67
2019-05-30T21:29:45.780Z,1.90
2019-05-30T21:32:18.438Z,2.12
2019-05-30T21:34:51.696Z,1.70
2019-05-30T21:37:45.814Z,1.98
2019-05-30T21:40:18.631Z,2.00
2019-05-30T21:43:04.670Z,1.55
2019-05-30T21:45:25.459Z,1.62
2019-05-30T21:47:57.911Z,1.57
2019-05-30T21:50:30.894Z,1.62
2019-05-30T21:53:03.414Z,2.02
2019-05-30T21:55:36.260Z,2.02
2019-05-30T21:58:08.860Z,2.40
2019-05-30T22:03:24.709Z,2.52
2019-05-30T22:05:57.924Z,2.60
2019-05-30T22:08:30.329Z,3.17
2019-05-30T22:11:03.618Z,2.90
2019-05-30T22:13:36.304Z,2.77
2019-05-30T22:16:09.613Z,3.40
2019-05-30T22:21:14.722Z,3.92
2019-05-30T22:23:48.112Z,4.72
2019-05-30T22:26:21.102Z,4.40
2019-05-30T22:28:53.607Z,4.67
2019-05-30T22:31:26.693Z,4.30
2019-05-30T22:33:59.497Z,5.15
2019-05-30T22:36:32.245Z,5.80
2019-05-30T22:39:08.682Z,6.20
2019-05-30T22:41:39.925Z,8.80
2019-05-30T22:46:44.171Z,10.28
2019-05-30T22:49:16.901Z,11.22
2019-05-30T22:51:51.056Z,12.98
2019-05-30T22:54:23.645Z,13.53
2019-05-30T22:56:56.660Z,10.50
2019-05-30T23:02:02.240Z,10.53
2019-05-30T23:07:06.550Z,12.82
2019-05-30T23:09:39.155Z,11.22
2019-05-30T23:14:43.325Z,10.18
2019-05-30T23:17:16.288Z,10.13
2019-05-30T23:19:48.972Z,10.05
2019-05-30T23:22:21.657Z,10.78
2019-05-30T23:24:55.444Z,9.33
2019-05-30T23:27:28.849Z,10.13
2019-05-30T23:32:32.789Z,13.62
2019-05-30T23:35:05.066Z,14.60
2019-05-30T23:37:38.759Z,16.12
2019-05-30T23:40:11.996Z,17.57
2019-05-30T23:42:44.718Z,20.15
2019-05-30T23:45:17.318Z,23.83
2019-05-30T23:50:21.960Z,23.47
2019-05-30T23:52:56.192Z,28.20
2019-05-30T23:55:28.552Z,28.35
2019-05-30T23:58:01.764Z,30.37
